Private Wetterstation Sandau
Wetterdaten: Donnerstag, 30.08.2012
Datum Zeit Temp. A. Feuchte A. Luftdruck Regen Wind Richtung Richtung Taupunkt Windchill
30.08.2012 00:01 18,3 C 71 % 1016,2 hPa 0,0 l/m 2,9 km/h (1 Bft) O-SO 112 12,9 C 18,3 C
30.08.2012 00:06 18,3 C 71 % 1016,2 hPa 0,0 l/m 3,2 km/h (1 Bft) O-SO 112 12,9 C 18,3 C
30.08.2012 00:11 18,3 C 71 % 1016,2 hPa 0,0 l/m 2,9 km/h (1 Bft) O-SO 112 12,9 C 18,3 C
30.08.2012 00:16 18,2 C 71 % 1016,2 hPa 0,0 l/m 4,0 km/h (1 Bft) O-SO 112 12,9 C 18,2 C
30.08.2012 00:21 18,2 C 71 % 1016,0 hPa 0,0 l/m 4,0 km/h (1 Bft) O 90 12,9 C 18,2 C
30.08.2012 00:26 18,1 C 72 % 1016,0 hPa 0,0 l/m 3,2 km/h (1 Bft) O-NO 67 13,0 C 18,1 C
30.08.2012 00:31 18,0 C 72 % 1016,0 hPa 0,0 l/m 2,2 km/h (1 Bft) O 90 12,9 C 18,0 C
30.08.2012 00:36 17,9 C 72 % 1016,1 hPa 0,0 l/m 3,2 km/h (1 Bft) O 90 12,8 C 17,9 C
30.08.2012 00:41 17,9 C 72 % 1016,2 hPa 0,0 l/m 4,0 km/h (1 Bft) O 90 12,8 C 17,9 C
30.08.2012 00:46 17,9 C 72 % 1016,3 hPa 0,0 l/m 4,3 km/h (1 Bft) O-SO 112 12,8 C 17,9 C
30.08.2012 00:51 17,8 C 73 % 1016,1 hPa 0,0 l/m 5,8 km/h (2 Bft) O-SO 112 12,9 C 17,8 C
30.08.2012 00:56 17,8 C 73 % 1016,0 hPa 0,0 l/m 3,6 km/h (1 Bft) O 90 12,9 C 17,8 C
30.08.2012 01:01 17,7 C 73 % 1016,0 hPa 0,0 l/m 6,8 km/h (2 Bft) O-SO 112 12,8 C 17,7 C
30.08.2012 01:06 17,6 C 73 % 1016,0 hPa 0,0 l/m 5,0 km/h (1 Bft) O-SO 112 12,7 C 17,6 C
30.08.2012 01:11 17,6 C 73 % 1016,0 hPa 0,0 l/m 7,2 km/h (2 Bft) O-SO 112 12,7 C 17,6 C
30.08.2012 01:16 17,5 C 74 % 1016,0 hPa 0,0 l/m 4,0 km/h (1 Bft) SO 135 12,8 C 17,5 C
30.08.2012 01:21 17,5 C 74 % 1015,7 hPa 0,0 l/m 5,4 km/h (1 Bft) O-SO 112 12,8 C 17,5 C
30.08.2012 01:26 17,5 C 74 % 1015,6 hPa 0,0 l/m 4,7 km/h (1 Bft) SO 135 12,8 C 17,5 C
30.08.2012 01:31 17,5 C 74 % 1015,7 hPa 0,0 l/m 5,4 km/h (1 Bft) O-SO 112 12,8 C 17,5 C
30.08.2012 01:36 17,5 C 74 % 1015,7 hPa 0,0 l/m 2,2 km/h (1 Bft) O-SO 112 12,8 C 17,5 C
30.08.2012 01:41 17,4 C 74 % 1015,7 hPa 0,0 l/m 4,0 km/h (1 Bft) O-SO 112 12,7 C 17,4 C
30.08.2012 01:46 17,3 C 75 % 1015,7 hPa 0,0 l/m 4,7 km/h (1 Bft) O-SO 112 12,8 C 17,3 C
30.08.2012 01:51 17,3 C 75 % 1015,6 hPa 0,0 l/m 4,0 km/h (1 Bft) O-SO 112 12,8 C 17,3 C
30.08.2012 01:56 17,3 C 75 % 1015,4 hPa 0,0 l/m 4,0 km/h (1 Bft) O-SO 112 12,8 C 17,3 C
30.08.2012 02:01 17,2 C 75 % 1015,6 hPa 0,0 l/m 0,0 km/h (0 Bft) O 90 12,7 C 17,2 C
30.08.2012 02:06 17,1 C 75 % 1015,6 hPa 0,0 l/m 2,5 km/h (1 Bft) O-SO 112 12,6 C 17,1 C
30.08.2012 02:11 17,1 C 75 % 1015,6 hPa 0,0 l/m 2,2 km/h (1 Bft) O 90 12,6 C 17,1 C
30.08.2012 02:16 17,1 C 75 % 1015,5 hPa 0,0 l/m 3,2 km/h (1 Bft) O-SO 112 12,6 C 17,1 C
30.08.2012 02:21 17,0 C 76 % 1015,6 hPa 0,0 l/m 0,0 km/h (0 Bft) O 90 12,7 C 17,0 C
30.08.2012 02:26 17,0 C 76 % 1015,5 hPa 0,0 l/m 0,0 km/h (0 Bft) O 90 12,7 C 17,0 C
30.08.2012 02:31 16,9 C 76 % 1015,4 hPa 0,0 l/m 0,0 km/h (0 Bft) O 90 12,6 C 16,9 C
30.08.2012 02:36 16,9 C 76 % 1015,2 hPa 0,0 l/m 2,9 km/h (1 Bft) O-SO 112 12,6 C 16,9 C
30.08.2012 02:41 16,9 C 76 % 1015,1 hPa 0,0 l/m 0,0 km/h (0 Bft) O-SO 112 12,6 C 16,9 C
30.08.2012 02:46 16,9 C 77 % 1015,3 hPa 0,0 l/m 0,0 km/h (0 Bft) O 90 12,8 C 16,9 C
30.08.2012 02:51 16,9 C 77 % 1015,2 hPa 0,0 l/m 0,0 km/h (0 Bft) O-SO 112 12,8 C 16,9 C
30.08.2012 02:56 16,8 C 77 % 1015,1 hPa 0,0 l/m 1,1 km/h (1 Bft) O-SO 112 12,7 C 16,8 C
30.08.2012 03:01 16,8 C 77 % 1015,3 hPa 0,0 l/m 0,0 km/h (0 Bft) SO 135 12,7 C 16,8 C
30.08.2012 03:06 16,7 C 77 % 1015,2 hPa 0,0 l/m 4,3 km/h (1 Bft) O-SO 112 12,6 C 16,7 C
30.08.2012 03:11 16,6 C 77 % 1015,2 hPa 0,0 l/m 0,0 km/h (0 Bft) O-SO 112 12,5 C 16,6 C
30.08.2012 03:16 16,6 C 77 % 1015,0 hPa 0,0 l/m 0,0 km/h (0 Bft) O-SO 112 12,5 C 16,6 C
30.08.2012 03:21 16,5 C 77 % 1014,9 hPa 0,0 l/m 3,2 km/h (1 Bft) O-SO 112 12,5 C 16,5 C
30.08.2012 03:26 16,5 C 77 % 1014,8 hPa 0,0 l/m 3,6 km/h (1 Bft) O-SO 112 12,5 C 16,5 C
30.08.2012 03:31 16,4 C 78 % 1014,9 hPa 0,0 l/m 2,2 km/h (1 Bft) O-SO 112 12,6 C 16,4 C
30.08.2012 03:36 16,4 C 78 % 1014,9 hPa 0,0 l/m 2,2 km/h (1 Bft) O-SO 112 12,6 C 16,4 C
30.08.2012 03:41 16,4 C 78 % 1014,9 hPa 0,0 l/m 2,9 km/h (1 Bft) O 90 12,6 C 16,4 C
30.08.2012 03:46 16,3 C 78 % 1014,8 hPa 0,0 l/m 2,5 km/h (1 Bft) O-SO 112 12,5 C 16,3 C
30.08.2012 03:51 16,3 C 78 % 1014,9 hPa 0,0 l/m 0,0 km/h (0 Bft) O-SO 112 12,5 C 16,3 C
30.08.2012 03:56 16,3 C 78 % 1015,0 hPa 0,0 l/m 0,0 km/h (0 Bft) SO 135 12,5 C 16,3 C
30.08.2012 04:01 16,2 C 79 % 1014,8 hPa 0,0 l/m 3,2 km/h (1 Bft) O-SO 112 12,6 C 16,2 C
30.08.2012 04:06 16,1 C 79 % 1014,6 hPa 0,0 l/m 4,7 km/h (1 Bft) O-SO 112 12,5 C 16,1 C
30.08.2012 04:11 16,1 C 79 % 1014,5 hPa 0,0 l/m 4,7 km/h (1 Bft) O 90 12,5 C 16,1 C
30.08.2012 04:16 16,1 C 80 % 1014,6 hPa 0,0 l/m 2,9 km/h (1 Bft) SO 135 12,6 C 16,1 C
30.08.2012 04:21 15,9 C 80 % 1014,6 hPa 0,0 l/m 3,2 km/h (1 Bft) O-SO 112 12,5 C 15,9 C
30.08.2012 04:26 15,9 C 80 % 1014,7 hPa 0,0 l/m 0,0 km/h (0 Bft) O-SO 112 12,5 C 15,9 C
30.08.2012 04:31 15,9 C 80 % 1014,8 hPa 0,0 l/m 0,0 km/h (0 Bft) O-SO 112 12,5 C 15,9 C
30.08.2012 04:36 15,9 C 80 % 1014,7 hPa 0,0 l/m 4,0 km/h (1 Bft) O-SO 112 12,5 C 15,9 C
30.08.2012 04:41 15,9 C 80 % 1014,8 hPa 0,0 l/m 2,5 km/h (1 Bft) SO 135 12,5 C 15,9 C
30.08.2012 04:46 15,8 C 80 % 1014,8 hPa 0,0 l/m 1,8 km/h (1 Bft) O-SO 112 12,4 C 15,8 C
30.08.2012 04:51 15,8 C 80 % 1014,8 hPa 0,0 l/m 2,5 km/h (1 Bft) O-SO 112 12,4 C 15,8 C
30.08.2012 04:56 15,6 C 80 % 1015,0 hPa 0,0 l/m 2,9 km/h (1 Bft) N-NO 22 12,2 C 15,6 C
30.08.2012 05:01 15,6 C 81 % 1014,9 hPa 0,0 l/m 1,8 km/h (1 Bft) O-NO 67 12,3 C 15,6 C
30.08.2012 05:06 15,5 C 82 % 1014,9 hPa 0,0 l/m 1,8 km/h (1 Bft) O-NO 67 12,4 C 15,5 C
30.08.2012 05:11 15,5 C 83 % 1014,6 hPa 0,0 l/m 0,0 km/h (0 Bft) O-NO 67 12,6 C 15,5 C
30.08.2012 05:16 15,6 C 83 % 1014,8 hPa 0,0 l/m 0,0 km/h (0 Bft) O-NO 67 12,7 C 15,6 C
30.08.2012 05:21 15,6 C 82 % 1014,6 hPa 0,0 l/m 2,5 km/h (1 Bft) O-NO 67 12,5 C 15,6 C
30.08.2012 05:26 15,6 C 82 % 1014,9 hPa 0,0 l/m 2,2 km/h (1 Bft) O-NO 67 12,5 C 15,6 C
30.08.2012 05:31 15,6 C 82 % 1014,6 hPa 0,0 l/m 1,1 km/h (1 Bft) SO 135 12,5 C 15,6 C
30.08.2012 05:36 15,6 C 82 % 1014,9 hPa 0,0 l/m 4,7 km/h (1 Bft) N-NO 22 12,5 C 15,6 C
30.08.2012 05:41 15,5 C 82 % 1014,7 hPa 0,0 l/m 2,9 km/h (1 Bft) SO 135 12,4 C 15,5 C
30.08.2012 05:46 15,5 C 83 % 1014,5 hPa 0,0 l/m 6,5 km/h (2 Bft) O 90 12,6 C 15,5 C
30.08.2012 05:51 15,5 C 83 % 1014,5 hPa 0,0 l/m 4,7 km/h (1 Bft) NO 45 12,6 C 15,5 C
30.08.2012 05:56 15,5 C 83 % 1014,5 hPa 0,0 l/m 2,5 km/h (1 Bft) O-NO 67 12,6 C 15,5 C
30.08.2012 06:01 15,5 C 83 % 1014,5 hPa 0,0 l/m 1,8 km/h (1 Bft) SO 135 12,6 C 15,5 C
30.08.2012 06:06 15,5 C 83 % 1014,5 hPa 0,0 l/m 0,0 km/h (0 Bft) O-NO 67 12,6 C 15,5 C
30.08.2012 06:11 15,5 C 83 % 1014,6 hPa 0,0 l/m 4,0 km/h (1 Bft) SO 135 12,6 C 15,5 C
30.08.2012 06:16 15,6 C 82 % 1014,7 hPa 0,0 l/m 0,0 km/h (0 Bft) S-SO 157 12,5 C 15,6 C
30.08.2012 06:21 15,6 C 82 % 1014,6 hPa 0,0 l/m 0,0 km/h (0 Bft) O 90 12,5 C 15,6 C
30.08.2012 06:26 15,5 C 82 % 1014,5 hPa 0,0 l/m 3,2 km/h (1 Bft) S-SO 157 12,4 C 15,5 C
30.08.2012 06:31 15,5 C 82 % 1014,6 hPa 0,0 l/m 0,0 km/h (0 Bft) SO 135 12,4 C 15,5 C
30.08.2012 06:36 15,5 C 82 % 1014,7 hPa 0,0 l/m 2,5 km/h (1 Bft) O-SO 112 12,4 C 15,5 C
30.08.2012 06:41 15,5 C 82 % 1014,8 hPa 0,0 l/m 4,7 km/h (1 Bft) SO 135 12,4 C 15,5 C
30.08.2012 06:46 15,4 C 82 % 1014,8 hPa 0,0 l/m 1,4 km/h (1 Bft) O-SO 112 12,3 C 15,4 C
30.08.2012 06:51 15,4 C 82 % 1014,8 hPa 0,0 l/m 6,5 km/h (2 Bft) O-SO 112 12,3 C 15,4 C
30.08.2012 06:56 15,3 C 83 % 1014,6 hPa 0,0 l/m 2,2 km/h (1 Bft) SO 135 12,4 C 15,3 C
30.08.2012 07:01 15,3 C 83 % 1014,8 hPa 0,0 l/m 0,0 km/h (0 Bft) SO 135 12,4 C 15,3 C
30.08.2012 07:06 15,2 C 83 % 1014,7 hPa 0,0 l/m 4,0 km/h (1 Bft) O-SO 112 12,3 C 15,2 C
30.08.2012 07:11 15,2 C 83 % 1014,7 hPa 0,0 l/m 0,0 km/h (0 Bft) O-SO 112 12,3 C 15,2 C
30.08.2012 07:16 15,2 C 83 % 1014,8 hPa 0,0 l/m 3,6 km/h (1 Bft) SO 135 12,3 C 15,2 C
30.08.2012 07:21 15,3 C 83 % 1014,9 hPa 0,0 l/m 4,3 km/h (1 Bft) SO 135 12,4 C 15,3 C
30.08.2012 07:26 15,3 C 83 % 1014,8 hPa 0,0 l/m 2,9 km/h (1 Bft) S-SO 157 12,4 C 15,3 C
30.08.2012 07:31 15,4 C 83 % 1014,9 hPa 0,0 l/m 5,0 km/h (1 Bft) SO 135 12,5 C 15,4 C
30.08.2012 07:36 15,5 C 83 % 1014,8 hPa 0,0 l/m 3,2 km/h (1 Bft) SO 135 12,6 C 15,5 C
30.08.2012 07:41 15,6 C 83 % 1014,7 hPa 0,0 l/m 2,2 km/h (1 Bft) O-SO 112 12,7 C 15,6 C
30.08.2012 07:46 15,6 C 83 % 1014,7 hPa 0,0 l/m 2,5 km/h (1 Bft) O-SO 112 12,7 C 15,6 C
30.08.2012 07:51 15,6 C 83 % 1014,9 hPa 0,0 l/m 3,6 km/h (1 Bft) SO 135 12,7 C 15,6 C
30.08.2012 07:56 15,7 C 83 % 1014,9 hPa 0,0 l/m 0,0 km/h (0 Bft) SO 135 12,8 C 15,7 C
30.08.2012 08:01 15,8 C 83 % 1015,0 hPa 0,0 l/m 0,0 km/h (0 Bft) S-SO 157 12,9 C 15,8 C
30.08.2012 08:06 15,8 C 83 % 1015,2 hPa 0,0 l/m 2,5 km/h (1 Bft) S 180 12,9 C 15,8 C
30.08.2012 08:11 15,9 C 83 % 1015,1 hPa 0,0 l/m 0,0 km/h (0 Bft) W-SW 247 13,0 C 15,9 C
30.08.2012 08:16 15,9 C 83 % 1015,0 hPa 0,0 l/m 0,0 km/h (0 Bft) S-SO 157 13,0 C 15,9 C
30.08.2012 08:21 16,1 C 84 % 1015,0 hPa 0,0 l/m 0,0 km/h (0 Bft) S-SO 157 13,4 C 16,1 C
30.08.2012 08:26 16,3 C 85 % 1014,9 hPa 0,0 l/m 2,2 km/h (1 Bft) S-SO 157 13,8 C 16,3 C
30.08.2012 08:31 16,3 C 85 % 1015,0 hPa 0,0 l/m 4,3 km/h (1 Bft) S-SO 157 13,8 C 16,3 C
30.08.2012 08:36 16,4 C 85 % 1015,0 hPa 0,0 l/m 2,5 km/h (1 Bft) S-SO 157 13,9 C 16,4 C
30.08.2012 08:41 16,6 C 85 % 1014,9 hPa 0,0 l/m 0,0 km/h (0 Bft) SO 135 14,1 C 16,6 C
30.08.2012 08:46 16,8 C 85 % 1015,0 hPa 0,0 l/m 2,9 km/h (1 Bft) SO 135 14,3 C 16,8 C
30.08.2012 08:51 16,9 C 85 % 1015,0 hPa 0,0 l/m 2,2 km/h (1 Bft) S-SO 157 14,4 C 16,9 C
30.08.2012 08:56 16,9 C 85 % 1015,0 hPa 0,0 l/m 2,2 km/h (1 Bft) O-SO 112 14,4 C 16,9 C
30.08.2012 09:01 16,9 C 85 % 1014,9 hPa 0,0 l/m 1,4 km/h (1 Bft) O-SO 112 14,4 C 16,9 C
30.08.2012 09:06 17,0 C 85 % 1014,9 hPa 0,0 l/m 0,0 km/h (0 Bft) O-SO 112 14,5 C 17,0 C
30.08.2012 09:11 17,1 C 85 % 1014,9 hPa 0,0 l/m 0,0 km/h (0 Bft) O-SO 112 14,6 C 17,1 C
30.08.2012 09:16 17,2 C 85 % 1014,8 hPa 0,0 l/m 2,2 km/h (1 Bft) O-SO 112 14,7 C 17,2 C
30.08.2012 09:21 17,3 C 85 % 1014,7 hPa 0,0 l/m 4,0 km/h (1 Bft) O-SO 112 14,8 C 17,3 C
30.08.2012 09:26 17,3 C 84 % 1014,7 hPa 0,0 l/m 0,0 km/h (0 Bft) O-SO 112 14,6 C 17,3 C
30.08.2012 09:31 17,4 C 84 % 1014,9 hPa 0,0 l/m 0,0 km/h (0 Bft) SO 135 14,7 C 17,4 C
30.08.2012 09:36 17,5 C 84 % 1014,9 hPa 0,0 l/m 0,0 km/h (0 Bft) SO 135 14,8 C 17,5 C
30.08.2012 09:41 17,6 C 84 % 1014,9 hPa 0,0 l/m 0,0 km/h (0 Bft) S-SO 157 14,9 C 17,6 C
30.08.2012 09:46 17,8 C 84 % 1015,0 hPa 0,0 l/m 1,4 km/h (1 Bft) S-SO 157 15,1 C 17,8 C
30.08.2012 09:51 17,8 C 84 % 1015,0 hPa 0,0 l/m 0,0 km/h (0 Bft) S-SO 157 15,1 C 17,8 C
30.08.2012 09:56 17,9 C 84 % 1015,0 hPa 0,5 l/m 2,5 km/h (1 Bft) SW 225 15,2 C 17,9 C
30.08.2012 10:01 17,9 C 84 % 1015,3 hPa 0,5 l/m 1,4 km/h (1 Bft) S-SW 202 15,2 C 17,9 C
30.08.2012 10:06 17,9 C 84 % 1015,2 hPa 0,0 l/m 1,4 km/h (1 Bft) S-SO 157 15,2 C 17,9 C
30.08.2012 10:11 17,8 C 85 % 1015,1 hPa 0,0 l/m 0,0 km/h (0 Bft) S 180 15,2 C 17,8 C
30.08.2012 10:16 17,8 C 84 % 1015,1 hPa 0,0 l/m 3,6 km/h (1 Bft) N-NW 337 15,1 C 17,8 C
30.08.2012 10:21 17,7 C 85 % 1015,3 hPa 0,0 l/m 2,9 km/h (1 Bft) N 360 15,1 C 17,7 C
30.08.2012 10:26 17,8 C 85 % 1015,5 hPa 0,0 l/m 1,1 km/h (1 Bft) W-NW 292 15,2 C 17,8 C
30.08.2012 10:31 17,8 C 85 % 1015,6 hPa 0,0 l/m 0,0 km/h (0 Bft) W-SW 247 15,2 C 17,8 C
30.08.2012 10:36 17,8 C 86 % 1015,4 hPa 0,0 l/m 4,7 km/h (1 Bft) W-NW 292 15,4 C 17,8 C
30.08.2012 10:41 17,8 C 85 % 1015,4 hPa 0,5 l/m 3,2 km/h (1 Bft) NW 315 15,2 C 17,8 C
30.08.2012 10:46 17,8 C 85 % 1015,2 hPa 1,0 l/m 0,0 km/h (0 Bft) NW 315 15,2 C 17,8 C
30.08.2012 10:51 17,8 C 86 % 1015,3 hPa 0,0 l/m 3,2 km/h (1 Bft) NW 315 15,4 C 17,8 C
30.08.2012 10:56 17,8 C 86 % 1015,4 hPa 0,0 l/m 0,0 km/h (0 Bft) NW 315 15,4 C 17,8 C
30.08.2012 11:01 17,9 C 86 % 1015,4 hPa 0,0 l/m 2,2 km/h (1 Bft) W-NW 292 15,5 C 17,9 C
30.08.2012 11:06 17,9 C 86 % 1015,3 hPa 0,5 l/m 1,1 km/h (1 Bft) NW 315 15,5 C 17,9 C
30.08.2012 11:11 17,9 C 86 % 1015,3 hPa 0,0 l/m 2,9 km/h (1 Bft) NW 315 15,5 C 17,9 C
30.08.2012 11:16 17,9 C 86 % 1015,2 hPa 0,0 l/m 0,0 km/h (0 Bft) NW 315 15,5 C 17,9 C
30.08.2012 11:21 17,9 C 86 % 1015,2 hPa 0,0 l/m 0,0 km/h (0 Bft) N 360 15,5 C 17,9 C
30.08.2012 11:26 18,1 C 87 % 1015,2 hPa 0,0 l/m 0,0 km/h (0 Bft) N 360 15,9 C 18,1 C
30.08.2012 11:31 18,1 C 87 % 1015,2 hPa 0,0 l/m 0,0 km/h (0 Bft) N 360 15,9 C 18,1 C
30.08.2012 11:36 18,3 C 87 % 1015,1 hPa 0,5 l/m 0,0 km/h (0 Bft) W-NW 292 16,1 C 18,3 C
30.08.2012 11:41 18,4 C 87 % 1015,3 hPa 0,0 l/m 1,4 km/h (1 Bft) W 270 16,2 C 18,4 C
30.08.2012 11:46 18,6 C 87 % 1015,3 hPa 0,0 l/m 0,0 km/h (0 Bft) W-NW 292 16,4 C 18,6 C
30.08.2012 11:51 18,8 C 87 % 1015,4 hPa 0,0 l/m 0,0 km/h (0 Bft) W-NW 292 16,6 C 18,8 C
30.08.2012 11:56 19,1 C 87 % 1015,4 hPa 0,0 l/m 0,0 km/h (0 Bft) W-NW 292 16,9 C 19,1 C
30.08.2012 12:01 19,3 C 87 % 1015,6 hPa 0,0 l/m 1,1 km/h (1 Bft) W-SW 247 17,1 C 19,3 C
30.08.2012 12:06 19,6 C 86 % 1015,7 hPa 0,0 l/m 4,3 km/h (1 Bft) W-SW 247 17,2 C 19,6 C
30.08.2012 12:11 19,9 C 85 % 1015,6 hPa 0,0 l/m 1,1 km/h (1 Bft) SW 225 17,3 C 19,9 C
30.08.2012 12:16 20,1 C 84 % 1015,7 hPa 0,0 l/m 2,9 km/h (1 Bft) SW 225 17,3 C 20,1 C
30.08.2012 12:21 20,2 C 84 % 1015,8 hPa 0,0 l/m 5,8 km/h (2 Bft) W-SW 247 17,4 C 20,2 C
30.08.2012 12:26 20,2 C 83 % 1015,8 hPa 0,0 l/m 2,5 km/h (1 Bft) W-SW 247 17,2 C 20,2 C
30.08.2012 12:31 20,3 C 82 % 1015,7 hPa 0,0 l/m 3,6 km/h (1 Bft) W-SW 247 17,1 C 20,3 C
30.08.2012 12:36 20,3 C 82 % 1015,7 hPa 0,0 l/m 3,2 km/h (1 Bft) W-SW 247 17,1 C 20,3 C
30.08.2012 12:41 20,4 C 82 % 1015,6 hPa 0,0 l/m 4,7 km/h (1 Bft) W 270 17,2 C 20,4 C
30.08.2012 12:46 20,6 C 82 % 1015,4 hPa 0,0 l/m 2,5 km/h (1 Bft) SW 225 17,4 C 20,6 C
30.08.2012 12:51 20,9 C 81 % 1015,3 hPa 0,0 l/m 1,8 km/h (1 Bft) W 270 17,5 C 20,9 C
30.08.2012 12:56 21,1 C 80 % 1015,4 hPa 0,0 l/m 4,0 km/h (1 Bft) W-SW 247 17,5 C 21,1 C
30.08.2012 13:01 21,2 C 80 % 1015,5 hPa 0,0 l/m 4,7 km/h (1 Bft) NW 315 17,6 C 21,2 C
30.08.2012 13:06 21,3 C 78 % 1015,7 hPa 0,0 l/m 7,2 km/h (2 Bft) W-SW 247 17,3 C 21,3 C
30.08.2012 13:11 21,3 C 78 % 1015,5 hPa 0,0 l/m 6,1 km/h (2 Bft) W 270 17,3 C 21,3 C
30.08.2012 13:16 21,4 C 78 % 1015,3 hPa 0,0 l/m 2,5 km/h (1 Bft) W-SW 247 17,4 C 21,4 C
30.08.2012 13:21 21,7 C 78 % 1015,4 hPa 0,0 l/m 0,0 km/h (0 Bft) N-NW 337 17,7 C 21,7 C
30.08.2012 13:26 21,8 C 76 % 1015,2 hPa 0,0 l/m 2,5 km/h (1 Bft) W 270 17,4 C 21,8 C
30.08.2012 13:31 21,8 C 76 % 1015,5 hPa 0,0 l/m 1,4 km/h (1 Bft) W 270 17,4 C 21,8 C
30.08.2012 13:36 21,9 C 76 % 1015,4 hPa 0,0 l/m 0,0 km/h (0 Bft) W 270 17,5 C 21,9 C
30.08.2012 13:41 22,1 C 75 % 1015,4 hPa 0,0 l/m 0,0 km/h (0 Bft) W 270 17,5 C 22,1 C
30.08.2012 13:46 22,2 C 75 % 1015,6 hPa 0,0 l/m 2,9 km/h (1 Bft) W-SW 247 17,5 C 22,2 C
30.08.2012 13:51 22,3 C 74 % 1015,5 hPa 0,0 l/m 1,1 km/h (1 Bft) NO 45 17,4 C 22,3 C
30.08.2012 13:56 22,4 C 74 % 1015,5 hPa 0,0 l/m 2,2 km/h (1 Bft) NW 315 17,5 C 22,4 C
30.08.2012 14:01 22,5 C 73 % 1015,6 hPa 0,0 l/m 0,0 km/h (0 Bft) NW 315 17,4 C 22,5 C
30.08.2012 14:06 22,6 C 73 % 1015,4 hPa 0,0 l/m 1,1 km/h (1 Bft) W-SW 247 17,5 C 22,6 C
30.08.2012 14:11 22,8 C 73 % 1015,6 hPa 0,0 l/m 0,0 km/h (0 Bft) W-SW 247 17,7 C 22,8 C
30.08.2012 14:16 23,0 C 72 % 1015,5 hPa 0,0 l/m 0,0 km/h (0 Bft) W-SW 247 17,7 C 23,0 C
30.08.2012 14:21 23,2 C 71 % 1015,5 hPa 0,0 l/m 0,0 km/h (0 Bft) O-SO 112 17,6 C 23,2 C
30.08.2012 14:26 23,1 C 71 % 1015,6 hPa 0,0 l/m 0,0 km/h (0 Bft) SW 225 17,5 C 23,1 C
30.08.2012 14:31 23,3 C 71 % 1015,6 hPa 0,0 l/m 4,3 km/h (1 Bft) S-SO 157 17,7 C 23,3 C
30.08.2012 14:36 23,4 C 70 % 1015,7 hPa 0,0 l/m 1,4 km/h (1 Bft) SO 135 17,6 C 23,4 C
30.08.2012 14:41 23,4 C 70 % 1015,7 hPa 0,0 l/m 0,0 km/h (0 Bft) SO 135 17,6 C 23,4 C
30.08.2012 14:46 23,3 C 70 % 1015,7 hPa 0,0 l/m 3,2 km/h (1 Bft) W-SW 247 17,5 C 23,3 C
30.08.2012 14:51 23,3 C 70 % 1015,7 hPa 0,0 l/m 0,0 km/h (0 Bft) W-SW 247 17,5 C 23,3 C
30.08.2012 14:56 23,3 C 70 % 1015,6 hPa 0,0 l/m 0,0 km/h (0 Bft) W-SW 247 17,5 C 23,3 C
30.08.2012 15:01 23,3 C 70 % 1015,6 hPa 0,0 l/m 0,0 km/h (0 Bft) W-NW 292 17,5 C 23,3 C
30.08.2012 15:06 23,2 C 70 % 1015,6 hPa 0,0 l/m 3,2 km/h (1 Bft) W-SW 247 17,4 C 23,2 C
30.08.2012 15:11 23,3 C 70 % 1015,6 hPa 0,0 l/m 6,1 km/h (2 Bft) W-SW 247 17,5 C 23,3 C
30.08.2012 15:16 23,2 C 70 % 1015,7 hPa 0,0 l/m 4,3 km/h (1 Bft) SW 225 17,4 C 23,2 C
30.08.2012 15:21 23,2 C 70 % 1015,7 hPa 0,0 l/m 6,1 km/h (2 Bft) W 270 17,4 C 23,2 C
30.08.2012 15:26 23,1 C 70 % 1015,6 hPa 0,0 l/m 6,5 km/h (2 Bft) W 270 17,3 C 23,1 C
30.08.2012 15:31 23,0 C 70 % 1015,7 hPa 0,0 l/m 3,6 km/h (1 Bft) W-SW 247 17,2 C 23,0 C
30.08.2012 15:36 22,9 C 70 % 1015,6 hPa 0,0 l/m 9,7 km/h (2 Bft) W-NW 292 17,1 C 22,9 C
30.08.2012 15:41 22,7 C 71 % 1015,5 hPa 0,0 l/m 4,0 km/h (1 Bft) W 270 17,2 C 22,7 C
30.08.2012 15:46 22,5 C 72 % 1015,6 hPa 0,0 l/m 4,7 km/h (1 Bft) W-NW 292 17,2 C 22,5 C
30.08.2012 15:51 22,4 C 72 % 1015,7 hPa 0,0 l/m 2,9 km/h (1 Bft) W 270 17,1 C 22,4 C
30.08.2012 15:56 22,3 C 73 % 1015,9 hPa 0,0 l/m 19,8 km/h (3 Bft) W 270 17,2 C 22,3 C
30.08.2012 16:01 21,9 C 74 % 1015,9 hPa 0,0 l/m 3,2 km/h (1 Bft) W-NW 292 17,0 C 21,9 C
30.08.2012 16:06 21,6 C 75 % 1015,8 hPa 0,0 l/m 5,0 km/h (1 Bft) W-NW 292 17,0 C 21,6 C
30.08.2012 16:11 21,2 C 77 % 1015,9 hPa 0,0 l/m 7,2 km/h (2 Bft) W-SW 247 17,0 C 21,2 C
30.08.2012 16:16 20,9 C 78 % 1015,9 hPa 0,0 l/m 7,6 km/h (2 Bft) W 270 16,9 C 20,9 C
30.08.2012 16:21 20,6 C 79 % 1015,8 hPa 0,0 l/m 0,0 km/h (0 Bft) W 270 16,8 C 20,6 C
30.08.2012 16:26 20,4 C 80 % 1015,8 hPa 0,0 l/m 4,7 km/h (1 Bft) W 270 16,8 C 20,4 C
30.08.2012 16:31 20,3 C 81 % 1015,7 hPa 0,0 l/m 4,0 km/h (1 Bft) W-SW 247 16,9 C 20,3 C
30.08.2012 16:36 20,3 C 81 % 1015,7 hPa 0,0 l/m 3,2 km/h (1 Bft) W-SW 247 16,9 C 20,3 C
30.08.2012 16:41 20,3 C 82 % 1015,7 hPa 0,0 l/m 5,8 km/h (2 Bft) W-SW 247 17,1 C 20,3 C
30.08.2012 16:46 20,3 C 82 % 1015,7 hPa 0,0 l/m 2,2 km/h (1 Bft) W 270 17,1 C 20,3 C
30.08.2012 16:51 20,2 C 83 % 1015,7 hPa 0,0 l/m 2,9 km/h (1 Bft) W-SW 247 17,2 C 20,2 C
30.08.2012 16:56 20,2 C 82 % 1015,6 hPa 0,0 l/m 4,0 km/h (1 Bft) W 270 17,0 C 20,2 C
30.08.2012 17:01 20,1 C 82 % 1015,6 hPa 0,0 l/m 0,0 km/h (0 Bft) W-NW 292 16,9 C 20,1 C
30.08.2012 17:06 20,2 C 83 % 1015,6 hPa 0,0 l/m 0,0 km/h (0 Bft) W-NW 292 17,2 C 20,2 C
30.08.2012 17:11 20,3 C 83 % 1015,4 hPa 0,0 l/m 4,7 km/h (1 Bft) W 270 17,3 C 20,3 C
30.08.2012 17:16 20,3 C 83 % 1015,5 hPa 0,0 l/m 4,7 km/h (1 Bft) W-SW 247 17,3 C 20,3 C
30.08.2012 17:21 20,4 C 83 % 1015,3 hPa 0,0 l/m 2,5 km/h (1 Bft) W-SW 247 17,4 C 20,4 C
30.08.2012 17:26 20,5 C 83 % 1015,3 hPa 0,0 l/m 1,1 km/h (1 Bft) W-SW 247 17,5 C 20,5 C
30.08.2012 17:31 20,6 C 83 % 1015,3 hPa 0,0 l/m 4,0 km/h (1 Bft) W-SW 247 17,6 C 20,6 C
30.08.2012 17:36 20,8 C 82 % 1015,3 hPa 0,0 l/m 2,5 km/h (1 Bft) W-SW 247 17,6 C 20,8 C
30.08.2012 17:41 20,8 C 82 % 1015,3 hPa 0,0 l/m 3,2 km/h (1 Bft) W-SW 247 17,6 C 20,8 C
30.08.2012 17:46 20,9 C 82 % 1015,3 hPa 0,0 l/m 0,0 km/h (0 Bft) W 270 17,7 C 20,9 C
30.08.2012 17:51 20,9 C 82 % 1015,4 hPa 0,0 l/m 4,3 km/h (1 Bft) W 270 17,7 C 20,9 C
30.08.2012 17:56 20,9 C 82 % 1015,3 hPa 0,0 l/m 6,5 km/h (2 Bft) W 270 17,7 C 20,9 C
30.08.2012 18:01 20,9 C 82 % 1015,3 hPa 0,0 l/m 2,9 km/h (1 Bft) W-SW 247 17,7 C 20,9 C
30.08.2012 18:06 20,9 C 82 % 1015,2 hPa 0,0 l/m 3,2 km/h (1 Bft) W-SW 247 17,7 C 20,9 C
30.08.2012 18:11 20,9 C 82 % 1015,4 hPa 0,0 l/m 8,3 km/h (2 Bft) W-SW 247 17,7 C 20,9 C
30.08.2012 18:16 20,8 C 82 % 1015,5 hPa 0,0 l/m 5,4 km/h (1 Bft) W-SW 247 17,6 C 20,8 C
30.08.2012 18:21 20,8 C 82 % 1015,4 hPa 0,0 l/m 7,2 km/h (2 Bft) W-SW 247 17,6 C 20,8 C
30.08.2012 18:26 20,7 C 82 % 1015,6 hPa 0,0 l/m 6,1 km/h (2 Bft) W-SW 247 17,5 C 20,7 C
30.08.2012 18:31 20,6 C 82 % 1015,6 hPa 0,0 l/m 7,6 km/h (2 Bft) W-SW 247 17,4 C 20,6 C
30.08.2012 18:36 20,5 C 82 % 1015,7 hPa 0,0 l/m 5,0 km/h (1 Bft) W-SW 247 17,3 C 20,5 C
30.08.2012 18:41 20,5 C 82 % 1015,5 hPa 0,0 l/m 3,6 km/h (1 Bft) W-SW 247 17,3 C 20,5 C
30.08.2012 18:46 20,4 C 82 % 1015,5 hPa 0,0 l/m 2,9 km/h (1 Bft) W 270 17,2 C 20,4 C
30.08.2012 18:51 20,4 C 82 % 1015,6 hPa 0,0 l/m 1,1 km/h (1 Bft) W 270 17,2 C 20,4 C
30.08.2012 18:56 20,3 C 81 % 1015,6 hPa 0,0 l/m 1,1 km/h (1 Bft) W 270 16,9 C 20,3 C
30.08.2012 19:01 20,3 C 82 % 1015,7 hPa 0,0 l/m 1,1 km/h (1 Bft) W 270 17,1 C 20,3 C
30.08.2012 19:06 20,2 C 81 % 1015,5 hPa 0,0 l/m 0,0 km/h (0 Bft) W-NW 292 16,8 C 20,2 C
30.08.2012 19:11 20,1 C 81 % 1015,4 hPa 0,0 l/m 2,5 km/h (1 Bft) W-NW 292 16,7 C 20,1 C
30.08.2012 19:16 20,1 C 81 % 1015,5 hPa 0,0 l/m 0,0 km/h (0 Bft) W-NW 292 16,7 C 20,1 C
30.08.2012 19:21 19,9 C 81 % 1015,4 hPa 0,0 l/m 0,0 km/h (0 Bft) W-NW 292 16,5 C 19,9 C
30.08.2012 19:26 19,9 C 82 % 1015,4 hPa 0,0 l/m 0,0 km/h (0 Bft) W-SW 247 16,7 C 19,9 C
30.08.2012 19:31 19,9 C 82 % 1015,3 hPa 0,0 l/m 1,1 km/h (1 Bft) W-SW 247 16,7 C 19,9 C
30.08.2012 19:36 19,8 C 82 % 1015,3 hPa 0,0 l/m 0,0 km/h (0 Bft) W-SW 247 16,6 C 19,8 C
30.08.2012 19:41 19,8 C 82 % 1015,4 hPa 0,0 l/m 0,0 km/h (0 Bft) W 270 16,6 C 19,8 C
30.08.2012 19:46 19,6 C 82 % 1015,3 hPa 0,0 l/m 3,2 km/h (1 Bft) W 270 16,4 C 19,6 C
30.08.2012 19:51 19,6 C 83 % 1015,5 hPa 0,0 l/m 5,4 km/h (1 Bft) W 270 16,6 C 19,6 C
30.08.2012 19:56 19,5 C 83 % 1015,5 hPa 0,0 l/m 2,2 km/h (1 Bft) W 270 16,5 C 19,5 C
30.08.2012 20:01 19,4 C 83 % 1015,4 hPa 0,0 l/m 2,9 km/h (1 Bft) W-NW 292 16,4 C 19,4 C
30.08.2012 20:06 19,3 C 83 % 1015,4 hPa 0,0 l/m 0,0 km/h (0 Bft) W-NW 292 16,3 C 19,3 C
30.08.2012 20:11 19,3 C 83 % 1015,5 hPa 0,0 l/m 0,0 km/h (0 Bft) W-NW 292 16,3 C 19,3 C
30.08.2012 20:16 19,2 C 83 % 1015,5 hPa 0,0 l/m 0,0 km/h (0 Bft) W-NW 292 16,2 C 19,2 C
30.08.2012 20:21 19,1 C 84 % 1015,5 hPa 0,0 l/m 0,0 km/h (0 Bft) W-NW 292 16,3 C 19,1 C
30.08.2012 20:26 19,0 C 84 % 1015,3 hPa 0,0 l/m 2,2 km/h (1 Bft) W-NW 292 16,2 C 19,0 C
30.08.2012 20:31 18,9 C 84 % 1015,4 hPa 0,0 l/m 0,0 km/h (0 Bft) W-NW 292 16,1 C 18,9 C
30.08.2012 20:36 18,9 C 84 % 1015,5 hPa 0,0 l/m 0,0 km/h (0 Bft) W-NW 292 16,1 C 18,9 C
30.08.2012 20:41 18,8 C 84 % 1015,4 hPa 0,0 l/m 1,8 km/h (1 Bft) W-NW 292 16,0 C 18,8 C
30.08.2012 20:46 18,8 C 84 % 1015,4 hPa 0,0 l/m 2,2 km/h (1 Bft) W 270 16,0 C 18,8 C
30.08.2012 20:51 18,6 C 84 % 1015,7 hPa 0,0 l/m 0,0 km/h (0 Bft) W 270 15,8 C 18,6 C
30.08.2012 20:56 18,6 C 84 % 1015,6 hPa 0,0 l/m 0,0 km/h (0 Bft) W-NW 292 15,8 C 18,6 C
30.08.2012 21:01 18,5 C 83 % 1015,7 hPa 0,0 l/m 1,4 km/h (1 Bft) W-NW 292 15,6 C 18,5 C
30.08.2012 21:06 18,5 C 83 % 1015,7 hPa 0,0 l/m 0,0 km/h (0 Bft) W-NW 292 15,6 C 18,5 C
30.08.2012 21:11 18,5 C 83 % 1015,9 hPa 0,0 l/m 1,4 km/h (1 Bft) W-NW 292 15,6 C 18,5 C
30.08.2012 21:16 18,4 C 83 % 1015,9 hPa 0,0 l/m 5,0 km/h (1 Bft) W-NW 292 15,5 C 18,4 C
30.08.2012 21:21 18,4 C 83 % 1015,8 hPa 0,0 l/m 4,0 km/h (1 Bft) W-NW 292 15,5 C 18,4 C
30.08.2012 21:26 18,4 C 83 % 1015,8 hPa 0,0 l/m 3,2 km/h (1 Bft) NW 315 15,5 C 18,4 C
30.08.2012 21:31 18,3 C 83 % 1015,9 hPa 0,0 l/m 0,0 km/h (0 Bft) NW 315 15,4 C 18,3 C
30.08.2012 21:36 18,3 C 83 % 1016,1 hPa 0,0 l/m 2,5 km/h (1 Bft) NW 315 15,4 C 18,3 C
30.08.2012 21:41 18,3 C 83 % 1015,9 hPa 0,0 l/m 0,0 km/h (0 Bft) NW 315 15,4 C 18,3 C
30.08.2012 21:46 18,2 C 83 % 1015,9 hPa 0,0 l/m 0,0 km/h (0 Bft) W-NW 292 15,3 C 18,2 C
30.08.2012 21:51 18,2 C 83 % 1015,7 hPa 0,0 l/m 0,0 km/h (0 Bft) N-NW 337 15,3 C 18,2 C
30.08.2012 21:56 18,1 C 83 % 1015,8 hPa 0,0 l/m 2,2 km/h (1 Bft) NW 315 15,2 C 18,1 C
30.08.2012 22:01 18,1 C 83 % 1015,8 hPa 0,0 l/m 5,0 km/h (1 Bft) W-NW 292 15,2 C 18,1 C
30.08.2012 22:06 18,1 C 83 % 1015,7 hPa 0,0 l/m 1,8 km/h (1 Bft) NW 315 15,2 C 18,1 C
30.08.2012 22:11 18,0 C 83 % 1015,7 hPa 0,0 l/m 0,0 km/h (0 Bft) N 360 15,1 C 18,0 C
30.08.2012 22:16 17,9 C 83 % 1015,6 hPa 0,0 l/m 0,0 km/h (0 Bft) N 360 15,0 C 17,9 C
30.08.2012 22:21 17,9 C 83 % 1015,6 hPa 0,0 l/m 0,0 km/h (0 Bft) N 360 15,0 C 17,9 C
30.08.2012 22:26 17,9 C 83 % 1015,8 hPa 0,0 l/m 0,0 km/h (0 Bft) N 360 15,0 C 17,9 C
30.08.2012 22:31 17,9 C 83 % 1015,6 hPa 0,0 l/m 0,0 km/h (0 Bft) N 360 15,0 C 17,9 C
30.08.2012 22:36 17,9 C 83 % 1015,7 hPa 0,0 l/m 0,0 km/h (0 Bft) NW 315 15,0 C 17,9 C
30.08.2012 22:41 17,8 C 83 % 1015,7 hPa 0,0 l/m 2,2 km/h (1 Bft) NW 315 14,9 C 17,8 C
30.08.2012 22:46 17,8 C 83 % 1015,7 hPa 0,0 l/m 0,0 km/h (0 Bft) NW 315 14,9 C 17,8 C
30.08.2012 22:51 17,8 C 83 % 1015,9 hPa 0,0 l/m 0,0 km/h (0 Bft) NW 315 14,9 C 17,8 C
30.08.2012 22:56 17,8 C 83 % 1015,9 hPa 0,0 l/m 0,0 km/h (0 Bft) NW 315 14,9 C 17,8 C
30.08.2012 23:01 17,8 C 83 % 1016,0 hPa 0,0 l/m 0,0 km/h (0 Bft) NW 315 14,9 C 17,8 C
30.08.2012 23:06 17,6 C 83 % 1015,7 hPa 0,0 l/m 4,0 km/h (1 Bft) W 270 14,7 C 17,6 C
30.08.2012 23:11 17,6 C 84 % 1015,6 hPa 0,0 l/m 0,0 km/h (0 Bft) W 270 14,9 C 17,6 C
30.08.2012 23:16 17,6 C 84 % 1015,8 hPa 0,0 l/m 0,0 km/h (0 Bft) W 270 14,9 C 17,6 C
30.08.2012 23:21 17,6 C 84 % 1015,8 hPa 0,0 l/m 1,1 km/h (1 Bft) W 270 14,9 C 17,6 C
30.08.2012 23:26 17,5 C 84 % 1015,9 hPa 0,0 l/m 3,2 km/h (1 Bft) W 270 14,8 C 17,5 C
30.08.2012 23:31 17,5 C 84 % 1016,0 hPa 0,0 l/m 2,9 km/h (1 Bft) W-NW 292 14,8 C 17,5 C
30.08.2012 23:36 17,5 C 84 % 1015,8 hPa 0,0 l/m 3,6 km/h (1 Bft) W-NW 292 14,8 C 17,5 C
30.08.2012 23:41 17,4 C 84 % 1015,9 hPa 0,0 l/m 0,0 km/h (0 Bft) W 270 14,7 C 17,4 C
30.08.2012 23:46 17,4 C 84 % 1015,8 hPa 0,0 l/m 0,0 km/h (0 Bft) W-NW 292 14,7 C 17,4 C
30.08.2012 23:51 17,4 C 84 % 1015,8 hPa 0,0 l/m 0,0 km/h (0 Bft) NW 315 14,7 C 17,4 C
30.08.2012 23:56 17,4 C 84 % 1015,9 hPa 0,0 l/m 0,0 km/h (0 Bft) NW 315 14,7 C 17,4 C
_ Min-Zeit 07:06 14:36 04:11 - 02:01 - - 04:56 07:06
Minimum _ 15,2 C 70 % 1014,5 hPa - 0,0 km/h (0 Bft) - - 12,2 C 15,2 C
_ Max-Zeit 14:36 11:26 00:46 10:46 15:56 - - 14:31 14:36
Maximum _ 23,4 C 87 % 1016,3 hPa 1,0 l/m 19,8 km/h
W (3 Bft)
- - 17,7 C 23,4 C
Durchschnitt _ 18,5 C 80 % 1015,4 hPa #3,6 l/m 2,3 km/h (1 Bft) O-SO - 15,0 C 18,5 C
(c) by David Heller